sensor_id;sensor_type;location;lat;lon;timestamp;P1;durP1;ratioP1;P2;durP2;ratioP2
68608;SDS011;55581;46.718;7.690;2023-03-20T00:01:55;2.70;;;0.90;;
68608;SDS011;55581;46.718;7.690;2023-03-20T00:04:21;3.25;;;0.95;;
68608;SDS011;55581;46.718;7.690;2023-03-20T00:06:47;4.50;;;2.00;;
68608;SDS011;55581;46.718;7.690;2023-03-20T00:09:17;8.90;;;2.63;;
68608;SDS011;55581;46.718;7.690;2023-03-20T00:11:46;4.07;;;1.93;;
68608;SDS011;55581;46.718;7.690;2023-03-20T00:14:14;2.83;;;0.90;;
68608;SDS011;55581;46.718;7.690;2023-03-20T00:16:42;3.17;;;1.00;;
68608;SDS011;55581;46.718;7.690;2023-03-20T00:19:19;4.35;;;2.05;;
68608;SDS011;55581;46.718;7.690;2023-03-20T00:21:47;4.70;;;1.60;;
68608;SDS011;55581;46.718;7.690;2023-03-20T00:24:14;3.07;;;0.83;;
68608;SDS011;55581;46.718;7.690;2023-03-20T00:26:40;3.00;;;0.80;;
68608;SDS011;55581;46.718;7.690;2023-03-20T00:29:09;3.38;;;1.40;;
68608;SDS011;55581;46.718;7.690;2023-03-20T00:31:42;3.60;;;0.75;;
68608;SDS011;55581;46.718;7.690;2023-03-20T00:34:11;2.97;;;0.50;;
68608;SDS011;55581;46.718;7.690;2023-03-20T00:36:38;1.75;;;0.40;;
68608;SDS011;55581;46.718;7.690;2023-03-20T00:39:06;2.28;;;0.43;;
68608;SDS011;55581;46.718;7.690;2023-03-20T00:41:47;1.65;;;0.35;;
68608;SDS011;55581;46.718;7.690;2023-03-20T00:46:53;3.70;;;0.40;;
68608;SDS011;55581;46.718;7.690;2023-03-20T00:49:27;3.47;;;0.68;;
68608;SDS011;55581;46.718;7.690;2023-03-20T00:51:55;4.13;;;1.67;;
68608;SDS011;55581;46.718;7.690;2023-03-20T00:54:22;4.10;;;0.90;;
68608;SDS011;55581;46.718;7.690;2023-03-20T00:56:53;3.03;;;1.00;;
68608;SDS011;55581;46.718;7.690;2023-03-20T00:59:34;2.47;;;0.57;;
68608;SDS011;55581;46.718;7.690;2023-03-20T01:02:01;1.67;;;0.35;;
68608;SDS011;55581;46.718;7.690;2023-03-20T01:04:35;1.60;;;0.30;;
68608;SDS011;55581;46.718;7.690;2023-03-20T01:07:02;2.85;;;0.52;;
68608;SDS011;55581;46.718;7.690;2023-03-20T01:09:29;2.00;;;0.40;;
68608;SDS011;55581;46.718;7.690;2023-03-20T01:11:55;1.75;;;0.20;;
68608;SDS011;55581;46.718;7.690;2023-03-20T01:14:20;2.70;;;0.30;;
68608;SDS011;55581;46.718;7.690;2023-03-20T01:16:46;2.43;;;0.60;;
68608;SDS011;55581;46.718;7.690;2023-03-20T01:19:13;2.20;;;0.47;;
68608;SDS011;55581;46.718;7.690;2023-03-20T01:21:42;3.30;;;0.88;;
68608;SDS011;55581;46.718;7.690;2023-03-20T01:24:08;2.60;;;0.70;;
68608;SDS011;55581;46.718;7.690;2023-03-20T01:26:38;3.33;;;0.65;;
68608;SDS011;55581;46.718;7.690;2023-03-20T01:29:25;2.88;;;0.50;;
68608;SDS011;55581;46.718;7.690;2023-03-20T01:31:54;1.63;;;0.40;;
68608;SDS011;55581;46.718;7.690;2023-03-20T01:34:20;2.75;;;0.40;;
68608;SDS011;55581;46.718;7.690;2023-03-20T01:36:52;2.80;;;0.65;;
68608;SDS011;55581;46.718;7.690;2023-03-20T01:39:19;4.75;;;0.52;;
68608;SDS011;55581;46.718;7.690;2023-03-20T01:41:46;3.20;;;0.53;;
68608;SDS011;55581;46.718;7.690;2023-03-20T01:44:18;2.42;;;0.50;;
68608;SDS011;55581;46.718;7.690;2023-03-20T01:46:54;1.48;;;0.30;;
68608;SDS011;55581;46.718;7.690;2023-03-20T01:51:49;3.00;;;0.70;;
68608;SDS011;55581;46.718;7.690;2023-03-20T01:56:59;3.80;;;0.60;;
68608;SDS011;55581;46.718;7.690;2023-03-20T01:59:45;2.87;;;0.67;;
68608;SDS011;55581;46.718;7.690;2023-03-20T02:02:15;3.63;;;0.50;;
68608;SDS011;55581;46.718;7.690;2023-03-20T02:04:46;3.65;;;0.60;;
68608;SDS011;55581;46.718;7.690;2023-03-20T02:07:17;4.38;;;1.58;;
68608;SDS011;55581;46.718;7.690;2023-03-20T02:09:46;3.97;;;1.30;;
68608;SDS011;55581;46.718;7.690;2023-03-20T02:12:13;3.97;;;1.33;;
68608;SDS011;55581;46.718;7.690;2023-03-20T02:14:39;3.67;;;1.40;;
68608;SDS011;55581;46.718;7.690;2023-03-20T02:17:05;3.60;;;1.40;;
68608;SDS011;55581;46.718;7.690;2023-03-20T02:19:43;3.30;;;1.10;;
68608;SDS011;55581;46.718;7.690;2023-03-20T02:25:10;4.57;;;1.40;;
68608;SDS011;55581;46.718;7.690;2023-03-20T02:42:02;3.35;;;1.30;;
68608;SDS011;55581;46.718;7.690;2023-03-20T02:47:20;3.30;;;1.23;;
68608;SDS011;55581;46.718;7.690;2023-03-20T02:55:16;4.05;;;1.58;;
68608;SDS011;55581;46.718;7.690;2023-03-20T03:00:25;5.47;;;1.90;;
68608;SDS011;55581;46.718;7.690;2023-03-20T03:03:17;4.07;;;1.52;;
68608;SDS011;55581;46.718;7.690;2023-03-20T03:06:02;4.35;;;1.67;;
68608;SDS011;55581;46.718;7.690;2023-03-20T03:08:34;3.30;;;1.17;;
68608;SDS011;55581;46.718;7.690;2023-03-20T03:11:07;5.10;;;1.50;;
68608;SDS011;55581;46.718;7.690;2023-03-20T03:16:38;4.43;;;1.73;;
68608;SDS011;55581;46.718;7.690;2023-03-20T03:19:09;4.75;;;1.88;;
68608;SDS011;55581;46.718;7.690;2023-03-20T03:21:39;4.50;;;1.83;;
68608;SDS011;55581;46.718;7.690;2023-03-20T03:24:05;5.13;;;2.42;;
68608;SDS011;55581;46.718;7.690;2023-03-20T03:26:53;6.07;;;2.37;;
68608;SDS011;55581;46.718;7.690;2023-03-20T03:29:20;5.30;;;2.47;;
68608;SDS011;55581;46.718;7.690;2023-03-20T03:31:48;4.80;;;2.28;;
68608;SDS011;55581;46.718;7.690;2023-03-20T03:34:15;5.47;;;2.47;;
68608;SDS011;55581;46.718;7.690;2023-03-20T03:42:23;5.32;;;2.58;;
68608;SDS011;55581;46.718;7.690;2023-03-20T03:45:13;6.47;;;3.03;;
68608;SDS011;55581;46.718;7.690;2023-03-20T03:47:46;5.68;;;2.78;;
68608;SDS011;55581;46.718;7.690;2023-03-20T03:50:54;6.45;;;3.00;;
68608;SDS011;55581;46.718;7.690;2023-03-20T03:53:29;6.27;;;3.60;;
68608;SDS011;55581;46.718;7.690;2023-03-20T03:56:03;6.03;;;2.42;;
68608;SDS011;55581;46.718;7.690;2023-03-20T03:58:47;6.22;;;2.65;;
68608;SDS011;55581;46.718;7.690;2023-03-20T04:01:16;5.82;;;2.50;;
68608;SDS011;55581;46.718;7.690;2023-03-20T04:03:49;5.90;;;2.70;;
68608;SDS011;55581;46.718;7.690;2023-03-20T04:06:19;6.43;;;2.93;;
68608;SDS011;55581;46.718;7.690;2023-03-20T04:08:44;6.30;;;3.22;;
68608;SDS011;55581;46.718;7.690;2023-03-20T04:11:13;6.38;;;2.95;;
68608;SDS011;55581;46.718;7.690;2023-03-20T04:13:40;6.82;;;3.42;;
68608;SDS011;55581;46.718;7.690;2023-03-20T04:16:06;7.00;;;3.07;;
68608;SDS011;55581;46.718;7.690;2023-03-20T04:18:38;6.05;;;2.83;;
68608;SDS011;55581;46.718;7.690;2023-03-20T04:21:03;7.37;;;3.20;;
68608;SDS011;55581;46.718;7.690;2023-03-20T04:23:32;7.70;;;2.60;;
68608;SDS011;55581;46.718;7.690;2023-03-20T04:25:58;5.78;;;2.72;;
68608;SDS011;55581;46.718;7.690;2023-03-20T04:28:23;5.90;;;2.67;;
68608;SDS011;55581;46.718;7.690;2023-03-20T04:30:52;5.38;;;2.60;;
68608;SDS011;55581;46.718;7.690;2023-03-20T04:33:19;7.07;;;3.00;;
68608;SDS011;55581;46.718;7.690;2023-03-20T04:35:44;4.60;;;2.27;;
68608;SDS011;55581;46.718;7.690;2023-03-20T04:38:10;5.13;;;2.23;;
68608;SDS011;55581;46.718;7.690;2023-03-20T04:40:35;5.70;;;2.30;;
68608;SDS011;55581;46.718;7.690;2023-03-20T04:43:01;5.33;;;2.33;;
68608;SDS011;55581;46.718;7.690;2023-03-20T04:45:26;5.00;;;2.20;;
68608;SDS011;55581;46.718;7.690;2023-03-20T04:47:52;5.22;;;2.65;;
68608;SDS011;55581;46.718;7.690;2023-03-20T04:50:17;4.93;;;2.47;;
68608;SDS011;55581;46.718;7.690;2023-03-20T04:52:43;7.33;;;3.13;;
68608;SDS011;55581;46.718;7.690;2023-03-20T04:55:09;8.23;;;3.37;;
68608;SDS011;55581;46.718;7.690;2023-03-20T04:57:34;6.72;;;4.00;;
68608;SDS011;55581;46.718;7.690;2023-03-20T05:00:00;6.70;;;3.07;;
68608;SDS011;55581;46.718;7.690;2023-03-20T05:02:30;6.63;;;3.10;;
68608;SDS011;55581;46.718;7.690;2023-03-20T05:04:55;8.53;;;4.50;;
68608;SDS011;55581;46.718;7.690;2023-03-20T05:07:23;7.30;;;3.88;;
68608;SDS011;55581;46.718;7.690;2023-03-20T05:09:49;9.30;;;4.88;;
68608;SDS011;55581;46.718;7.690;2023-03-20T05:12:14;9.10;;;3.50;;
68608;SDS011;55581;46.718;7.690;2023-03-20T05:14:40;7.97;;;3.65;;
68608;SDS011;55581;46.718;7.690;2023-03-20T05:17:06;6.40;;;3.20;;
68608;SDS011;55581;46.718;7.690;2023-03-20T05:19:31;6.70;;;3.20;;
68608;SDS011;55581;46.718;7.690;2023-03-20T05:21:57;6.13;;;2.90;;
68608;SDS011;55581;46.718;7.690;2023-03-20T05:24:22;6.53;;;3.63;;
68608;SDS011;55581;46.718;7.690;2023-03-20T05:26:47;5.70;;;3.03;;
68608;SDS011;55581;46.718;7.690;2023-03-20T05:29:13;6.20;;;2.70;;
68608;SDS011;55581;46.718;7.690;2023-03-20T05:31:38;6.03;;;3.10;;
68608;SDS011;55581;46.718;7.690;2023-03-20T05:34:06;5.78;;;2.80;;
68608;SDS011;55581;46.718;7.690;2023-03-20T05:36:31;5.80;;;3.07;;
68608;SDS011;55581;46.718;7.690;2023-03-20T05:38:57;8.53;;;3.20;;
68608;SDS011;55581;46.718;7.690;2023-03-20T05:41:23;5.30;;;2.53;;
68608;SDS011;55581;46.718;7.690;2023-03-20T05:43:48;5.53;;;2.40;;
68608;SDS011;55581;46.718;7.690;2023-03-20T05:46:13;5.63;;;2.90;;
68608;SDS011;55581;46.718;7.690;2023-03-20T05:48:39;5.93;;;3.00;;
68608;SDS011;55581;46.718;7.690;2023-03-20T05:51:04;6.40;;;3.00;;
68608;SDS011;55581;46.718;7.690;2023-03-20T05:53:30;6.23;;;3.00;;
68608;SDS011;55581;46.718;7.690;2023-03-20T05:55:58;5.40;;;2.92;;
68608;SDS011;55581;46.718;7.690;2023-03-20T05:58:24;5.37;;;2.80;;
68608;SDS011;55581;46.718;7.690;2023-03-20T06:00:53;5.75;;;2.70;;
68608;SDS011;55581;46.718;7.690;2023-03-20T06:03:18;5.55;;;2.50;;
68608;SDS011;55581;46.718;7.690;2023-03-20T06:05:44;5.83;;;1.90;;
68608;SDS011;55581;46.718;7.690;2023-03-20T06:08:12;5.50;;;2.45;;
68608;SDS011;55581;46.718;7.690;2023-03-20T06:10:39;7.40;;;2.70;;
68608;SDS011;55581;46.718;7.690;2023-03-20T06:13:05;5.00;;;2.23;;
68608;SDS011;55581;46.718;7.690;2023-03-20T06:15:30;5.23;;;2.57;;
68608;SDS011;55581;46.718;7.690;2023-03-20T06:17:56;5.50;;;2.58;;
68608;SDS011;55581;46.718;7.690;2023-03-20T06:20:21;5.37;;;2.03;;
68608;SDS011;55581;46.718;7.690;2023-03-20T06:22:47;5.55;;;2.63;;
68608;SDS011;55581;46.718;7.690;2023-03-20T06:25:13;5.13;;;2.30;;
68608;SDS011;55581;46.718;7.690;2023-03-20T06:27:39;4.25;;;1.95;;
68608;SDS011;55581;46.718;7.690;2023-03-20T06:30:04;5.27;;;2.40;;
68608;SDS011;55581;46.718;7.690;2023-03-20T06:32:31;4.13;;;1.80;;
68608;SDS011;55581;46.718;7.690;2023-03-20T06:34:58;4.43;;;1.83;;
68608;SDS011;55581;46.718;7.690;2023-03-20T06:37:24;5.13;;;1.38;;
68608;SDS011;55581;46.718;7.690;2023-03-20T06:39:50;4.55;;;1.80;;
68608;SDS011;55581;46.718;7.690;2023-03-20T06:42:15;4.63;;;1.90;;
68608;SDS011;55581;46.718;7.690;2023-03-20T06:44:41;4.03;;;1.50;;
68608;SDS011;55581;46.718;7.690;2023-03-20T06:47:07;3.55;;;1.40;;
68608;SDS011;55581;46.718;7.690;2023-03-20T06:49:32;4.57;;;1.87;;
68608;SDS011;55581;46.718;7.690;2023-03-20T06:51:58;4.23;;;1.93;;
68608;SDS011;55581;46.718;7.690;2023-03-20T06:54:24;3.78;;;1.50;;
68608;SDS011;55581;46.718;7.690;2023-03-20T06:56:51;4.30;;;1.30;;
68608;SDS011;55581;46.718;7.690;2023-03-20T06:59:17;4.07;;;1.50;;
68608;SDS011;55581;46.718;7.690;2023-03-20T07:01:43;4.63;;;1.58;;
68608;SDS011;55581;46.718;7.690;2023-03-20T07:04:09;4.43;;;1.90;;
68608;SDS011;55581;46.718;7.690;2023-03-20T07:06:35;4.27;;;1.37;;
68608;SDS011;55581;46.718;7.690;2023-03-20T07:09:00;3.85;;;1.40;;
68608;SDS011;55581;46.718;7.690;2023-03-20T07:11:26;4.27;;;1.70;;
68608;SDS011;55581;46.718;7.690;2023-03-20T07:13:52;4.68;;;1.38;;
68608;SDS011;55581;46.718;7.690;2023-03-20T07:16:18;3.67;;;1.50;;
68608;SDS011;55581;46.718;7.690;2023-03-20T07:18:43;6.93;;;1.83;;
68608;SDS011;55581;46.718;7.690;2023-03-20T07:21:09;4.03;;;1.90;;
68608;SDS011;55581;46.718;7.690;2023-03-20T07:23:41;5.78;;;2.00;;
68608;SDS011;55581;46.718;7.690;2023-03-20T07:26:07;4.67;;;1.93;;
68608;SDS011;55581;46.718;7.690;2023-03-20T07:28:34;4.13;;;1.73;;
68608;SDS011;55581;46.718;7.690;2023-03-20T07:31:00;4.00;;;1.77;;
68608;SDS011;55581;46.718;7.690;2023-03-20T07:33:25;4.70;;;1.80;;
68608;SDS011;55581;46.718;7.690;2023-03-20T07:35:56;4.47;;;1.80;;
68608;SDS011;55581;46.718;7.690;2023-03-20T07:38:22;4.60;;;2.17;;
68608;SDS011;55581;46.718;7.690;2023-03-20T07:40:48;5.32;;;2.38;;
68608;SDS011;55581;46.718;7.690;2023-03-20T07:43:14;4.60;;;2.37;;
68608;SDS011;55581;46.718;7.690;2023-03-20T07:45:40;4.88;;;1.98;;
68608;SDS011;55581;46.718;7.690;2023-03-20T07:48:06;4.57;;;1.93;;
68608;SDS011;55581;46.718;7.690;2023-03-20T07:50:32;4.17;;;1.73;;
68608;SDS011;55581;46.718;7.690;2023-03-20T07:52:57;5.80;;;2.33;;
68608;SDS011;55581;46.718;7.690;2023-03-20T07:55:24;4.20;;;2.00;;
68608;SDS011;55581;46.718;7.690;2023-03-20T07:57:52;5.90;;;1.98;;
68608;SDS011;55581;46.718;7.690;2023-03-20T08:00:18;4.50;;;1.90;;
68608;SDS011;55581;46.718;7.690;2023-03-20T08:02:49;4.90;;;1.80;;
68608;SDS011;55581;46.718;7.690;2023-03-20T08:05:14;3.58;;;1.70;;
68608;SDS011;55581;46.718;7.690;2023-03-20T08:07:40;4.00;;;1.70;;
68608;SDS011;55581;46.718;7.690;2023-03-20T08:10:06;4.03;;;1.63;;
68608;SDS011;55581;46.718;7.690;2023-03-20T08:12:31;5.25;;;1.92;;
68608;SDS011;55581;46.718;7.690;2023-03-20T08:14:57;4.30;;;2.00;;
68608;SDS011;55581;46.718;7.690;2023-03-20T08:17:22;3.85;;;1.70;;
68608;SDS011;55581;46.718;7.690;2023-03-20T08:19:51;3.90;;;1.70;;
68608;SDS011;55581;46.718;7.690;2023-03-20T08:22:16;4.00;;;1.77;;
68608;SDS011;55581;46.718;7.690;2023-03-20T08:24:42;5.35;;;2.20;;
68608;SDS011;55581;46.718;7.690;2023-03-20T08:27:10;4.20;;;1.77;;
68608;SDS011;55581;46.718;7.690;2023-03-20T08:29:36;4.75;;;2.03;;
68608;SDS011;55581;46.718;7.690;2023-03-20T08:32:03;4.60;;;2.10;;
68608;SDS011;55581;46.718;7.690;2023-03-20T08:34:30;5.20;;;2.33;;
68608;SDS011;55581;46.718;7.690;2023-03-20T08:36:57;5.37;;;2.77;;
68608;SDS011;55581;46.718;7.690;2023-03-20T08:39:23;5.53;;;2.97;;
68608;SDS011;55581;46.718;7.690;2023-03-20T08:41:48;5.17;;;2.13;;
68608;SDS011;55581;46.718;7.690;2023-03-20T08:44:13;4.63;;;2.10;;
68608;SDS011;55581;46.718;7.690;2023-03-20T08:46:39;5.55;;;2.40;;
68608;SDS011;55581;46.718;7.690;2023-03-20T08:49:05;7.67;;;2.13;;
68608;SDS011;55581;46.718;7.690;2023-03-20T08:51:31;4.90;;;1.63;;
68608;SDS011;55581;46.718;7.690;2023-03-20T08:53:57;3.90;;;1.50;;
68608;SDS011;55581;46.718;7.690;2023-03-20T08:56:22;3.85;;;1.70;;
68608;SDS011;55581;46.718;7.690;2023-03-20T08:58:48;3.70;;;1.50;;
68608;SDS011;55581;46.718;7.690;2023-03-20T09:01:13;3.73;;;1.70;;
68608;SDS011;55581;46.718;7.690;2023-03-20T09:03:41;3.97;;;1.90;;
68608;SDS011;55581;46.718;7.690;2023-03-20T09:06:07;3.80;;;1.70;;
68608;SDS011;55581;46.718;7.690;2023-03-20T09:08:33;7.70;;;2.03;;
68608;SDS011;55581;46.718;7.690;2023-03-20T09:10:59;3.72;;;1.80;;
68608;SDS011;55581;46.718;7.690;2023-03-20T09:13:26;3.80;;;1.48;;
68608;SDS011;55581;46.718;7.690;2023-03-20T09:15:53;2.70;;;0.90;;
68608;SDS011;55581;46.718;7.690;2023-03-20T09:18:22;2.92;;;0.90;;
68608;SDS011;55581;46.718;7.690;2023-03-20T09:20:48;3.35;;;1.35;;
68608;SDS011;55581;46.718;7.690;2023-03-20T09:23:14;4.03;;;1.20;;
68608;SDS011;55581;46.718;7.690;2023-03-20T09:25:40;3.90;;;1.63;;
68608;SDS011;55581;46.718;7.690;2023-03-20T09:28:07;3.38;;;1.17;;
68608;SDS011;55581;46.718;7.690;2023-03-20T09:30:33;3.43;;;1.13;;
68608;SDS011;55581;46.718;7.690;2023-03-20T09:32:58;5.20;;;1.90;;
68608;SDS011;55581;46.718;7.690;2023-03-20T09:35:24;3.67;;;1.60;;
68608;SDS011;55581;46.718;7.690;2023-03-20T09:37:49;3.72;;;1.40;;
68608;SDS011;55581;46.718;7.690;2023-03-20T09:40:27;2.93;;;1.13;;
68608;SDS011;55581;46.718;7.690;2023-03-20T09:51:56;4.53;;;1.02;;
68608;SDS011;55581;46.718;7.690;2023-03-20T09:54:28;3.27;;;1.20;;
68608;SDS011;55581;46.718;7.690;2023-03-20T09:56:57;3.67;;;1.30;;
68608;SDS011;55581;46.718;7.690;2023-03-20T09:59:24;4.47;;;1.48;;
68608;SDS011;55581;46.718;7.690;2023-03-20T10:04:48;2.88;;;1.10;;
68608;SDS011;55581;46.718;7.690;2023-03-20T10:07:20;3.90;;;1.10;;
68608;SDS011;55581;46.718;7.690;2023-03-20T10:09:47;7.07;;;1.50;;
68608;SDS011;55581;46.718;7.690;2023-03-20T10:20:38;5.57;;;0.82;;
68608;SDS011;55581;46.718;7.690;2023-03-20T10:26:00;2.07;;;0.60;;
68608;SDS011;55581;46.718;7.690;2023-03-20T10:28:35;2.75;;;0.70;;
68608;SDS011;55581;46.718;7.690;2023-03-20T10:34:22;2.90;;;0.57;;
68608;SDS011;55581;46.718;7.690;2023-03-20T10:42:47;1.00;;;0.20;;
68608;SDS011;55581;46.718;7.690;2023-03-20T10:47:55;3.78;;;0.95;;
68608;SDS011;55581;46.718;7.690;2023-03-20T10:50:27;2.28;;;0.70;;
68608;SDS011;55581;46.718;7.690;2023-03-20T10:52:57;1.40;;;0.30;;
68608;SDS011;55581;46.718;7.690;2023-03-20T10:55:28;2.22;;;0.40;;
68608;SDS011;55581;46.718;7.690;2023-03-20T10:57:58;2.30;;;0.70;;
68608;SDS011;55581;46.718;7.690;2023-03-20T11:00:30;1.73;;;0.40;;
68608;SDS011;55581;46.718;7.690;2023-03-20T11:02:57;1.13;;;0.30;;
68608;SDS011;55581;46.718;7.690;2023-03-20T11:10:26;1.50;;;0.30;;
68608;SDS011;55581;46.718;7.690;2023-03-20T11:12:52;1.77;;;0.50;;
68608;SDS011;55581;46.718;7.690;2023-03-20T11:15:19;1.55;;;0.38;;
68608;SDS011;55581;46.718;7.690;2023-03-20T11:18:01;2.57;;;0.47;;
68608;SDS011;55581;46.718;7.690;2023-03-20T11:20:36;2.80;;;0.50;;
68608;SDS011;55581;46.718;7.690;2023-03-20T11:23:06;2.13;;;0.40;;
68608;SDS011;55581;46.718;7.690;2023-03-20T11:25:45;1.90;;;0.50;;
68608;SDS011;55581;46.718;7.690;2023-03-20T11:28:32;2.13;;;0.50;;
68608;SDS011;55581;46.718;7.690;2023-03-20T11:31:04;1.50;;;0.20;;
68608;SDS011;55581;46.718;7.690;2023-03-20T11:33:43;2.15;;;0.30;;
68608;SDS011;55581;46.718;7.690;2023-03-20T11:36:29;1.60;;;0.40;;
68608;SDS011;55581;46.718;7.690;2023-03-20T11:39:21;1.85;;;0.30;;
68608;SDS011;55581;46.718;7.690;2023-03-20T11:41:49;1.85;;;0.47;;
68608;SDS011;55581;46.718;7.690;2023-03-20T11:44:27;1.87;;;0.40;;
68608;SDS011;55581;46.718;7.690;2023-03-20T11:49:22;1.47;;;0.40;;
68608;SDS011;55581;46.718;7.690;2023-03-20T11:51:50;2.75;;;0.50;;
68608;SDS011;55581;46.718;7.690;2023-03-20T11:54:18;2.20;;;0.63;;
68608;SDS011;55581;46.718;7.690;2023-03-20T11:56:53;1.58;;;0.28;;
68608;SDS011;55581;46.718;7.690;2023-03-20T11:59:20;3.00;;;0.52;;
68608;SDS011;55581;46.718;7.690;2023-03-20T12:01:51;4.90;;;0.60;;
68608;SDS011;55581;46.718;7.690;2023-03-20T12:10:03;1.67;;;0.30;;
68608;SDS011;55581;46.718;7.690;2023-03-20T12:25:26;1.90;;;0.30;;
68608;SDS011;55581;46.718;7.690;2023-03-20T12:30:32;1.55;;;0.28;;
68608;SDS011;55581;46.718;7.690;2023-03-20T12:33:15;1.45;;;0.30;;
68608;SDS011;55581;46.718;7.690;2023-03-20T12:35:43;1.20;;;0.20;;
68608;SDS011;55581;46.718;7.690;2023-03-20T12:38:17;1.58;;;0.22;;
68608;SDS011;55581;46.718;7.690;2023-03-20T12:40:49;1.53;;;0.30;;
68608;SDS011;55581;46.718;7.690;2023-03-20T12:43:24;2.17;;;0.30;;
68608;SDS011;55581;46.718;7.690;2023-03-20T12:56:54;2.08;;;0.20;;
68608;SDS011;55581;46.718;7.690;2023-03-20T13:02:17;1.58;;;0.35;;
68608;SDS011;55581;46.718;7.690;2023-03-20T13:11:08;1.70;;;0.32;;
68608;SDS011;55581;46.718;7.690;2023-03-20T13:13:35;1.30;;;0.30;;
68608;SDS011;55581;46.718;7.690;2023-03-20T13:16:17;1.58;;;0.30;;
68608;SDS011;55581;46.718;7.690;2023-03-20T13:19:10;1.10;;;0.20;;
68608;SDS011;55581;46.718;7.690;2023-03-20T13:22:07;1.17;;;0.30;;
68608;SDS011;55581;46.718;7.690;2023-03-20T13:30:15;1.85;;;0.45;;
68608;SDS011;55581;46.718;7.690;2023-03-20T13:32:53;1.08;;;0.28;;
68608;SDS011;55581;46.718;7.690;2023-03-20T13:35:45;1.40;;;0.30;;
68608;SDS011;55581;46.718;7.690;2023-03-20T13:38:21;2.45;;;0.30;;
68608;SDS011;55581;46.718;7.690;2023-03-20T13:40:51;1.10;;;0.20;;
68608;SDS011;55581;46.718;7.690;2023-03-20T13:45:55;1.73;;;0.30;;
68608;SDS011;55581;46.718;7.690;2023-03-20T13:48:33;1.30;;;0.50;;
68608;SDS011;55581;46.718;7.690;2023-03-20T14:04:07;0.90;;;0.20;;
68608;SDS011;55581;46.718;7.690;2023-03-20T14:11:55;1.55;;;0.20;;
68608;SDS011;55581;46.718;7.690;2023-03-20T14:14:30;1.20;;;0.20;;
68608;SDS011;55581;46.718;7.690;2023-03-20T14:17:01;1.15;;;0.20;;
68608;SDS011;55581;46.718;7.690;2023-03-20T14:19:33;1.65;;;0.22;;
68608;SDS011;55581;46.718;7.690;2023-03-20T14:22:03;0.88;;;0.28;;
68608;SDS011;55581;46.718;7.690;2023-03-20T14:24:33;1.23;;;0.32;;
68608;SDS011;55581;46.718;7.690;2023-03-20T14:27:00;1.63;;;0.30;;
68608;SDS011;55581;46.718;7.690;2023-03-20T14:29:36;0.82;;;0.20;;
68608;SDS011;55581;46.718;7.690;2023-03-20T14:34:27;1.17;;;0.20;;
68608;SDS011;55581;46.718;7.690;2023-03-20T14:53:26;3.15;;;0.30;;
68608;SDS011;55581;46.718;7.690;2023-03-20T15:01:05;2.58;;;0.32;;
68608;SDS011;55581;46.718;7.690;2023-03-20T15:03:32;1.08;;;0.20;;
68608;SDS011;55581;46.718;7.690;2023-03-20T15:06:03;3.22;;;0.30;;
68608;SDS011;55581;46.718;7.690;2023-03-20T15:08:30;0.80;;;0.20;;
68608;SDS011;55581;46.718;7.690;2023-03-20T15:11:03;2.22;;;0.40;;
68608;SDS011;55581;46.718;7.690;2023-03-20T15:13:31;2.90;;;0.40;;
68608;SDS011;55581;46.718;7.690;2023-03-20T15:16:03;1.55;;;0.30;;
68608;SDS011;55581;46.718;7.690;2023-03-20T15:18:55;1.70;;;0.30;;
68608;SDS011;55581;46.718;7.690;2023-03-20T15:21:28;1.30;;;0.20;;
68608;SDS011;55581;46.718;7.690;2023-03-20T15:24:00;2.40;;;0.20;;
68608;SDS011;55581;46.718;7.690;2023-03-20T15:26:26;1.45;;;0.50;;
68608;SDS011;55581;46.718;7.690;2023-03-20T15:31:31;1.33;;;0.35;;
68608;SDS011;55581;46.718;7.690;2023-03-20T15:33:59;3.03;;;0.30;;
68608;SDS011;55581;46.718;7.690;2023-03-20T15:36:29;1.00;;;0.20;;
68608;SDS011;55581;46.718;7.690;2023-03-20T15:39:10;1.40;;;0.30;;
68608;SDS011;55581;46.718;7.690;2023-03-20T15:41:37;1.90;;;0.30;;
68608;SDS011;55581;46.718;7.690;2023-03-20T15:44:11;1.50;;;0.30;;
68608;SDS011;55581;46.718;7.690;2023-03-20T15:46:40;1.23;;;0.30;;
68608;SDS011;55581;46.718;7.690;2023-03-20T15:49:07;1.42;;;0.30;;
68608;SDS011;55581;46.718;7.690;2023-03-20T15:51:41;1.42;;;0.30;;
68608;SDS011;55581;46.718;7.690;2023-03-20T15:54:12;1.48;;;0.40;;
68608;SDS011;55581;46.718;7.690;2023-03-20T15:56:42;1.37;;;0.30;;
68608;SDS011;55581;46.718;7.690;2023-03-20T15:59:12;2.13;;;0.30;;
68608;SDS011;55581;46.718;7.690;2023-03-20T16:01:42;1.55;;;0.38;;
68608;SDS011;55581;46.718;7.690;2023-03-20T16:04:14;1.25;;;0.30;;
68608;SDS011;55581;46.718;7.690;2023-03-20T16:06:52;2.25;;;0.55;;
68608;SDS011;55581;46.718;7.690;2023-03-20T16:09:20;2.17;;;0.60;;
68608;SDS011;55581;46.718;7.690;2023-03-20T16:11:47;1.52;;;0.45;;
68608;SDS011;55581;46.718;7.690;2023-03-20T16:14:24;1.95;;;0.43;;
68608;SDS011;55581;46.718;7.690;2023-03-20T16:16:52;1.87;;;0.40;;
68608;SDS011;55581;46.718;7.690;2023-03-20T16:19:20;1.98;;;0.50;;
68608;SDS011;55581;46.718;7.690;2023-03-20T16:21:53;1.75;;;0.40;;
68608;SDS011;55581;46.718;7.690;2023-03-20T16:24:29;1.83;;;0.40;;
68608;SDS011;55581;46.718;7.690;2023-03-20T16:26:58;1.55;;;0.50;;
68608;SDS011;55581;46.718;7.690;2023-03-20T16:29:26;1.70;;;0.50;;
68608;SDS011;55581;46.718;7.690;2023-03-20T16:34:19;4.27;;;0.33;;
68608;SDS011;55581;46.718;7.690;2023-03-20T16:36:48;1.40;;;0.30;;
68608;SDS011;55581;46.718;7.690;2023-03-20T16:39:19;1.45;;;0.30;;
68608;SDS011;55581;46.718;7.690;2023-03-20T16:41:50;1.98;;;0.50;;
68608;SDS011;55581;46.718;7.690;2023-03-20T16:44:21;1.92;;;0.45;;
68608;SDS011;55581;46.718;7.690;2023-03-20T16:46:57;3.20;;;0.60;;
68608;SDS011;55581;46.718;7.690;2023-03-20T16:52:11;1.95;;;0.30;;
68608;SDS011;55581;46.718;7.690;2023-03-20T16:54:39;2.40;;;0.43;;
68608;SDS011;55581;46.718;7.690;2023-03-20T16:57:08;2.10;;;0.30;;
68608;SDS011;55581;46.718;7.690;2023-03-20T16:59:41;2.65;;;0.60;;
68608;SDS011;55581;46.718;7.690;2023-03-20T17:02:25;2.28;;;0.60;;
68608;SDS011;55581;46.718;7.690;2023-03-20T17:05:00;2.13;;;0.40;;
68608;SDS011;55581;46.718;7.690;2023-03-20T17:07:28;2.67;;;0.53;;
68608;SDS011;55581;46.718;7.690;2023-03-20T17:09:59;2.42;;;0.40;;
68608;SDS011;55581;46.718;7.690;2023-03-20T17:12:36;2.17;;;0.43;;
68608;SDS011;55581;46.718;7.690;2023-03-20T17:15:04;2.28;;;0.50;;
68608;SDS011;55581;46.718;7.690;2023-03-20T17:17:30;2.33;;;0.40;;
68608;SDS011;55581;46.718;7.690;2023-03-20T17:19:58;2.40;;;0.50;;
68608;SDS011;55581;46.718;7.690;2023-03-20T17:22:25;1.95;;;0.40;;
68608;SDS011;55581;46.718;7.690;2023-03-20T17:24:53;1.80;;;0.43;;
68608;SDS011;55581;46.718;7.690;2023-03-20T17:27:20;2.17;;;0.50;;
68608;SDS011;55581;46.718;7.690;2023-03-20T17:29:47;2.80;;;0.40;;
68608;SDS011;55581;46.718;7.690;2023-03-20T17:32:15;2.03;;;0.50;;
68608;SDS011;55581;46.718;7.690;2023-03-20T17:34:42;2.50;;;0.50;;
68608;SDS011;55581;46.718;7.690;2023-03-20T17:37:12;5.35;;;0.60;;
68608;SDS011;55581;46.718;7.690;2023-03-20T17:39:40;2.08;;;0.40;;
68608;SDS011;55581;46.718;7.690;2023-03-20T17:42:14;3.67;;;0.40;;
68608;SDS011;55581;46.718;7.690;2023-03-20T17:44:42;1.63;;;0.22;;
68608;SDS011;55581;46.718;7.690;2023-03-20T17:47:11;2.25;;;0.50;;
68608;SDS011;55581;46.718;7.690;2023-03-20T17:49:41;1.60;;;0.30;;
68608;SDS011;55581;46.718;7.690;2023-03-20T17:52:18;3.28;;;0.50;;
68608;SDS011;55581;46.718;7.690;2023-03-20T17:54:49;3.05;;;0.43;;
68608;SDS011;55581;46.718;7.690;2023-03-20T17:57:19;3.45;;;0.40;;
68608;SDS011;55581;46.718;7.690;2023-03-20T18:00:07;1.92;;;0.30;;
68608;SDS011;55581;46.718;7.690;2023-03-20T18:02:39;2.47;;;0.57;;
68608;SDS011;55581;46.718;7.690;2023-03-20T18:05:05;2.85;;;0.68;;
68608;SDS011;55581;46.718;7.690;2023-03-20T18:07:32;2.13;;;0.50;;
68608;SDS011;55581;46.718;7.690;2023-03-20T18:10:02;2.47;;;0.50;;